createdAt,value
2023-04-15T00:01:12.139Z,23.94
2023-04-15T00:03:39.867Z,24.18
2023-04-15T00:06:07.160Z,23.92
2023-04-15T00:08:34.602Z,23.75
2023-04-15T00:11:08.018Z,23.94
2023-04-15T00:13:35.098Z,24.53
2023-04-15T00:16:02.880Z,24.57
2023-04-15T00:18:30.170Z,24.79
2023-04-15T00:20:57.246Z,24.54
2023-04-15T00:23:24.260Z,24.61
2023-04-15T00:25:51.270Z,24.32
2023-04-15T00:28:19.048Z,24.63
2023-04-15T00:30:46.564Z,24.42
2023-04-15T00:33:14.257Z,24.65
2023-04-15T00:35:41.769Z,25.09
2023-04-15T00:38:08.855Z,25.25
2023-04-15T00:40:36.628Z,24.58
2023-04-15T00:43:04.513Z,25.23
2023-04-15T00:45:32.058Z,24.84
2023-04-15T00:47:59.453Z,24.92
2023-04-15T00:50:26.551Z,25.36
2023-04-15T00:52:53.533Z,25.42
2023-04-15T00:55:20.595Z,25.40
2023-04-15T00:57:47.659Z,25.58
2023-04-15T01:00:14.892Z,25.44
2023-04-15T01:02:42.361Z,25.14
2023-04-15T01:05:09.758Z,25.58
2023-04-15T01:07:36.907Z,25.26
2023-04-15T01:10:04.899Z,25.19
2023-04-15T01:12:33.488Z,25.54
2023-04-15T01:15:01.359Z,25.75
2023-04-15T01:17:28.503Z,25.78
2023-04-15T01:19:58.241Z,25.99
2023-04-15T01:22:26.860Z,25.45
2023-04-15T01:25:13.593Z,26.12
2023-04-15T01:27:42.624Z,25.62
2023-04-15T01:30:10.779Z,26.01
2023-04-15T01:32:38.334Z,25.83
2023-04-15T01:35:24.213Z,25.90
2023-04-15T01:37:51.463Z,25.86
2023-04-15T01:40:18.495Z,26.08
2023-04-15T01:42:46.977Z,26.43
2023-04-15T01:45:15.193Z,26.61
2023-04-15T01:47:43.850Z,26.53
2023-04-15T01:50:12.092Z,26.54
2023-04-15T01:52:40.448Z,26.19
2023-04-15T01:55:09.807Z,26.59
2023-04-15T01:57:37.982Z,26.58
2023-04-15T02:00:08.067Z,26.30
2023-04-15T02:02:36.344Z,26.54
2023-04-15T02:05:04.971Z,27.16
2023-04-15T02:07:33.093Z,26.66
2023-04-15T02:10:01.535Z,26.56
2023-04-15T02:12:29.761Z,26.36
2023-04-15T02:14:58.085Z,26.90
2023-04-15T02:17:26.876Z,26.41
2023-04-15T02:19:57.138Z,26.20
2023-04-15T02:22:25.484Z,26.80
2023-04-15T02:24:53.937Z,26.40
2023-04-15T02:27:22.822Z,26.17
2023-04-15T02:29:53.963Z,26.27
2023-04-15T02:32:24.632Z,26.35
2023-04-15T02:34:53.360Z,26.54
2023-04-15T02:37:21.676Z,26.51
2023-04-15T02:39:50.300Z,26.06
2023-04-15T02:42:18.852Z,25.92
2023-04-15T02:44:47.195Z,25.93
2023-04-15T02:47:16.295Z,26.36
2023-04-15T02:49:44.399Z,25.79
2023-04-15T02:52:12.715Z,25.89
2023-04-15T02:54:40.998Z,25.39
2023-04-15T02:57:09.171Z,25.29
2023-04-15T02:59:37.429Z,25.88
2023-04-15T03:02:07.993Z,25.21
2023-04-15T03:04:36.198Z,25.03
2023-04-15T03:07:04.405Z,25.03
2023-04-15T03:09:33.347Z,24.66
2023-04-15T03:12:01.859Z,24.14
2023-04-15T03:14:30.131Z,24.63
2023-04-15T03:16:59.723Z,24.26
2023-04-15T03:19:28.205Z,24.34
2023-04-15T03:21:56.432Z,24.25
2023-04-15T03:24:25.132Z,23.60
2023-04-15T03:26:53.415Z,23.29
2023-04-15T03:29:21.565Z,23.59
2023-04-15T03:31:49.808Z,22.97
2023-04-15T03:34:18.019Z,22.76
2023-04-15T03:36:47.046Z,22.74
2023-04-15T03:39:15.612Z,22.57
2023-04-15T03:41:43.794Z,22.39
2023-04-15T03:44:12.025Z,22.04
2023-04-15T03:46:40.340Z,21.74
2023-04-15T03:49:09.139Z,21.55
2023-04-15T03:51:37.231Z,21.28
2023-04-15T03:54:05.990Z,21.12
2023-04-15T03:56:34.195Z,20.84
2023-04-15T03:59:02.564Z,20.84
2023-04-15T04:01:31.035Z,20.75
2023-04-15T04:03:59.325Z,20.59
2023-04-15T04:06:27.659Z,20.09
2023-04-15T04:08:57.103Z,20.14
2023-04-15T04:11:25.471Z,20.07
2023-04-15T04:13:53.638Z,19.56
2023-04-15T04:16:21.955Z,19.31
2023-04-15T04:18:50.502Z,19.48
2023-04-15T04:21:18.821Z,18.83
2023-04-15T04:23:47.087Z,18.75
2023-04-15T04:26:15.276Z,18.29
2023-04-15T04:28:43.456Z,16.11
2023-04-15T04:31:12.134Z,12.74
2023-04-15T04:33:40.635Z,9.81
2023-04-15T04:36:08.920Z,8.02
2023-04-15T04:38:37.225Z,6.70
2023-04-15T04:41:05.733Z,5.27
2023-04-15T04:43:33.901Z,4.64
2023-04-15T04:46:02.086Z,3.81
2023-04-15T04:48:30.405Z,3.25
2023-04-15T04:50:58.722Z,2.87
2023-04-15T04:53:28.270Z,2.31
2023-04-15T04:55:56.499Z,2.48
2023-04-15T04:58:24.622Z,1.92
2023-04-15T05:00:53.183Z,2.14
2023-04-15T05:03:22.424Z,1.74
2023-04-15T05:05:50.909Z,1.55
2023-04-15T05:08:19.278Z,1.02
2023-04-15T05:10:47.874Z,0.63
2023-04-15T05:13:16.050Z,0.73
2023-04-15T05:15:45.150Z,0.81
2023-04-15T05:18:13.488Z,0.62
2023-04-15T05:20:42.079Z,0.31
2023-04-15T05:23:10.303Z,0.28
2023-04-15T05:25:38.550Z,0.32
2023-04-15T05:28:06.762Z,0.44
2023-04-15T05:30:35.028Z,0.40
2023-04-15T05:33:04.102Z,0.16
2023-04-15T05:35:32.399Z,0.13
2023-04-15T05:38:00.987Z,0.12
2023-04-15T05:40:29.532Z,0.15
2023-04-15T05:42:57.730Z,0.02
2023-04-15T05:45:26.153Z,0.25
2023-04-15T05:47:54.790Z,0.00
2023-04-15T05:50:23.000Z,0.00
2023-04-15T05:52:51.499Z,0.00
2023-04-15T05:55:19.754Z,0.00
2023-04-15T05:57:48.195Z,0.00
2023-04-15T06:00:18.769Z,0.00
2023-04-15T06:02:47.926Z,0.00
2023-04-15T06:05:16.411Z,0.00
2023-04-15T06:07:45.580Z,0.00
2023-04-15T06:10:15.861Z,0.00
2023-04-15T06:12:44.162Z,0.00
2023-04-15T06:15:12.541Z,0.00
2023-04-15T06:17:40.920Z,0.00
2023-04-15T06:20:09.834Z,0.00
2023-04-15T06:22:39.422Z,0.00
2023-04-15T06:25:11.261Z,0.00
2023-04-15T06:27:39.463Z,0.00
2023-04-15T06:30:10.060Z,0.00
2023-04-15T06:32:38.711Z,0.00
2023-04-15T06:35:07.092Z,0.00
2023-04-15T06:37:35.224Z,0.00
2023-04-15T06:40:05.475Z,0.00
2023-04-15T06:42:34.293Z,0.00
2023-04-15T06:45:02.794Z,0.00
2023-04-15T06:47:31.175Z,0.00
2023-04-15T06:49:59.423Z,0.00
2023-04-15T06:52:27.585Z,0.00
2023-04-15T06:54:56.402Z,0.00
2023-04-15T06:57:24.672Z,0.00
2023-04-15T06:59:54.752Z,0.00
2023-04-15T07:02:23.533Z,0.00
2023-04-15T07:04:51.742Z,0.00
2023-04-15T07:07:19.976Z,0.00
2023-04-15T07:09:48.549Z,0.00
2023-04-15T07:12:16.692Z,0.00
2023-04-15T07:14:44.964Z,0.00
2023-04-15T07:17:13.738Z,0.00
2023-04-15T07:19:42.285Z,0.00
2023-04-15T07:22:10.553Z,0.00
2023-04-15T07:24:38.831Z,0.00
2023-04-15T07:27:07.049Z,0.00
2023-04-15T07:29:35.286Z,0.00
2023-04-15T07:32:04.187Z,0.00
2023-04-15T07:34:32.879Z,0.00
2023-04-15T07:37:01.589Z,0.00
2023-04-15T07:39:30.177Z,0.00
2023-04-15T07:41:59.235Z,0.00
2023-04-15T07:44:27.842Z,0.00
2023-04-15T07:46:56.769Z,0.00
2023-04-15T07:49:24.975Z,0.00
2023-04-15T07:51:53.909Z,0.00
2023-04-15T07:54:22.300Z,0.00
2023-04-15T07:56:50.700Z,0.00
2023-04-15T07:59:18.789Z,0.00
2023-04-15T08:01:46.927Z,0.00
2023-04-15T08:04:15.317Z,0.00
2023-04-15T08:06:51.086Z,0.00
2023-04-15T08:09:20.695Z,0.00
2023-04-15T08:11:51.107Z,0.00
2023-04-15T08:14:19.456Z,0.00
2023-04-15T08:16:48.601Z,0.00
2023-04-15T08:19:17.594Z,0.00
2023-04-15T08:21:45.839Z,0.00
2023-04-15T08:24:14.633Z,0.00
2023-04-15T08:26:42.945Z,0.00
2023-04-15T08:29:11.143Z,0.00
2023-04-15T08:31:39.378Z,0.00
2023-04-15T08:34:07.826Z,0.00
2023-04-15T08:36:36.331Z,0.00
2023-04-15T08:39:05.095Z,0.00
2023-04-15T08:41:36.024Z,0.00
2023-04-15T08:44:05.936Z,0.00
2023-04-15T08:46:37.896Z,0.00
2023-04-15T08:49:08.699Z,0.00
2023-04-15T08:51:37.019Z,0.00
2023-04-15T08:54:05.512Z,0.00
2023-04-15T08:56:33.863Z,0.00
2023-04-15T08:59:02.637Z,0.00
2023-04-15T09:01:32.703Z,0.00
2023-04-15T09:04:03.916Z,0.00
2023-04-15T09:06:32.152Z,0.00
2023-04-15T09:09:01.368Z,0.00
2023-04-15T09:11:31.594Z,0.00
2023-04-15T09:13:59.853Z,0.00
2023-04-15T09:16:28.629Z,0.00
2023-04-15T09:18:56.981Z,0.00
2023-04-15T09:21:25.192Z,0.00
2023-04-15T09:23:58.387Z,0.00
2023-04-15T09:26:36.749Z,0.00
2023-04-15T09:29:14.534Z,0.00
2023-04-15T09:31:49.061Z,0.00
2023-04-15T09:34:27.268Z,0.00
2023-04-15T09:36:57.237Z,0.00
2023-04-15T09:39:25.668Z,0.00
2023-04-15T09:42:07.345Z,0.00
2023-04-15T09:44:36.007Z,0.00
2023-04-15T09:47:04.386Z,0.00
2023-04-15T09:49:33.135Z,0.00
2023-04-15T09:52:06.185Z,0.00
2023-04-15T09:54:36.757Z,0.00
2023-04-15T09:57:10.548Z,0.00
2023-04-15T09:59:38.873Z,0.00
2023-04-15T10:02:07.871Z,0.00
2023-04-15T10:04:40.094Z,0.00
2023-04-15T10:07:12.942Z,0.00
2023-04-15T10:09:41.545Z,0.00
2023-04-15T10:12:10.201Z,0.00
2023-04-15T10:14:39.121Z,0.00
2023-04-15T10:17:10.642Z,0.00
2023-04-15T10:19:38.874Z,0.00
2023-04-15T10:22:07.660Z,0.00
2023-04-15T10:24:36.603Z,0.00
2023-04-15T10:27:06.641Z,0.00
2023-04-15T10:29:35.441Z,0.00
2023-04-15T10:32:04.787Z,0.00
2023-04-15T10:34:33.454Z,0.00
2023-04-15T10:37:03.893Z,0.00
2023-04-15T10:39:35.118Z,0.00
2023-04-15T10:42:11.745Z,0.00
2023-04-15T10:44:43.458Z,0.00
2023-04-15T10:47:14.319Z,0.00
2023-04-15T10:49:52.794Z,0.00
2023-04-15T10:52:27.753Z,0.00
2023-04-15T10:55:11.297Z,0.00
2023-04-15T10:57:41.402Z,0.00
2023-04-15T11:00:09.569Z,0.00
2023-04-15T11:02:48.045Z,0.00
2023-04-15T11:05:18.494Z,0.00
2023-04-15T11:07:49.492Z,0.00
2023-04-15T11:10:26.687Z,0.00
2023-04-15T11:12:58.598Z,0.00
2023-04-15T11:15:34.285Z,0.00
2023-04-15T11:18:23.627Z,0.00
2023-04-15T11:20:57.819Z,0.00
2023-04-15T11:23:30.891Z,0.00
2023-04-15T11:26:00.534Z,0.00
2023-04-15T11:28:30.797Z,0.00
2023-04-15T11:31:06.362Z,0.00
2023-04-15T11:33:34.855Z,0.00
2023-04-15T11:36:04.499Z,0.00
2023-04-15T11:38:34.865Z,0.00
2023-04-15T11:41:03.244Z,0.00
2023-04-15T11:43:32.794Z,0.00
2023-04-15T11:46:02.790Z,0.00
2023-04-15T11:48:36.604Z,0.51
2023-04-15T11:51:07.098Z,1.33
2023-04-15T11:53:42.290Z,1.88
2023-04-15T11:56:11.341Z,2.03
2023-04-15T11:58:39.440Z,2.77
2023-04-15T12:01:07.570Z,3.52
2023-04-15T12:03:47.228Z,3.88
2023-04-15T12:06:19.724Z,4.33
2023-04-15T12:08:55.544Z,4.66
2023-04-15T12:11:31.534Z,5.52
2023-04-15T12:14:04.287Z,5.56
2023-04-15T12:16:31.902Z,5.74
2023-04-15T12:19:00.727Z,6.23
2023-04-15T12:21:34.813Z,6.49
2023-04-15T12:24:06.714Z,6.80
2023-04-15T12:26:57.325Z,7.03
2023-04-15T12:29:29.310Z,6.97
2023-04-15T12:32:07.488Z,7.53
2023-04-15T12:34:39.545Z,7.33
2023-04-15T12:37:11.738Z,7.36
2023-04-15T12:39:40.880Z,7.39
2023-04-15T12:42:09.263Z,7.50
2023-04-15T12:44:37.570Z,7.40
2023-04-15T12:47:05.641Z,7.72
2023-04-15T12:49:33.010Z,7.63
2023-04-15T12:52:03.563Z,7.67
2023-04-15T12:54:31.918Z,7.83
2023-04-15T12:56:59.685Z,8.31
2023-04-15T12:59:27.134Z,8.53
2023-04-15T13:01:54.812Z,8.36
2023-04-15T13:04:22.494Z,8.58
2023-04-15T13:06:50.184Z,8.32
2023-04-15T13:09:17.409Z,8.62
2023-04-15T13:11:44.560Z,8.33
2023-04-15T13:14:13.244Z,8.80
2023-04-15T13:16:41.051Z,8.65
2023-04-15T13:19:08.181Z,8.91
2023-04-15T13:21:36.341Z,8.77
2023-04-15T13:24:04.947Z,9.05
2023-04-15T13:26:32.307Z,9.14
2023-04-15T13:28:59.863Z,9.21
2023-04-15T13:31:27.370Z,9.21
2023-04-15T13:33:54.509Z,9.19
2023-04-15T13:36:21.754Z,9.13
2023-04-15T13:38:51.132Z,9.41
2023-04-15T13:41:18.804Z,9.13
2023-04-15T13:43:45.900Z,9.50
2023-04-15T13:46:13.094Z,9.44
2023-04-15T13:48:40.408Z,9.60
2023-04-15T13:51:07.492Z,9.65
2023-04-15T13:53:38.844Z,9.65
2023-04-15T13:56:08.480Z,9.65
2023-04-15T13:58:37.242Z,9.72
2023-04-15T14:01:06.079Z,9.60
2023-04-15T14:03:36.179Z,9.74
2023-04-15T14:06:03.789Z,9.75
2023-04-15T14:08:31.548Z,9.89
2023-04-15T14:10:58.938Z,10.03
2023-04-15T14:13:26.077Z,9.99
2023-04-15T14:15:53.342Z,10.09
2023-04-15T14:18:20.588Z,10.07
2023-04-15T14:20:47.587Z,10.20
2023-04-15T14:23:14.681Z,10.11
2023-04-15T14:25:41.889Z,10.24
2023-04-15T14:28:09.375Z,10.41
2023-04-15T14:30:36.585Z,10.38
2023-04-15T14:33:04.376Z,10.41
2023-04-15T14:35:31.677Z,10.28
2023-04-15T14:37:58.814Z,10.14
2023-04-15T14:40:26.097Z,10.24
2023-04-15T14:42:53.169Z,10.43
2023-04-15T14:45:20.392Z,10.39
2023-04-15T14:47:47.882Z,10.59
2023-04-15T14:50:15.051Z,10.58
2023-04-15T14:52:42.226Z,10.46
2023-04-15T14:55:11.401Z,10.62
2023-04-15T14:57:39.432Z,10.57
2023-04-15T15:00:07.649Z,10.73
2023-04-15T15:02:39.733Z,10.57
2023-04-15T15:05:09.065Z,10.78
2023-04-15T15:07:39.664Z,10.78
2023-04-15T15:10:07.323Z,11.22
2023-04-15T15:12:34.615Z,10.82
2023-04-15T15:15:12.199Z,10.97
2023-04-15T15:17:43.422Z,11.02
2023-04-15T15:20:10.980Z,10.93
2023-04-15T15:22:38.202Z,10.93
2023-04-15T15:25:05.901Z,10.97
2023-04-15T15:27:33.407Z,10.95
2023-04-15T15:30:09.824Z,11.12
2023-04-15T15:32:38.873Z,11.02
2023-04-15T15:35:06.699Z,11.17
2023-04-15T15:37:33.991Z,11.07
2023-04-15T15:40:01.202Z,11.19
2023-04-15T15:42:31.937Z,11.29
2023-04-15T15:44:59.350Z,11.36
2023-04-15T15:47:28.185Z,11.50
2023-04-15T15:49:55.386Z,11.56
2023-04-15T15:52:22.389Z,11.63
2023-04-15T15:54:49.481Z,11.76
2023-04-15T15:57:16.596Z,11.98
2023-04-15T15:59:43.918Z,12.13
2023-04-15T16:02:12.252Z,12.49
2023-04-15T16:04:39.797Z,12.44
2023-04-15T16:07:07.240Z,12.65
2023-04-15T16:09:34.783Z,12.69
2023-04-15T16:12:02.325Z,12.97
2023-04-15T16:14:29.440Z,12.83
2023-04-15T16:16:56.737Z,12.92
2023-04-15T16:19:23.903Z,13.17
2023-04-15T16:21:51.490Z,13.20
2023-04-15T16:24:18.726Z,13.56
2023-04-15T16:26:45.838Z,13.93
2023-04-15T16:29:12.833Z,13.87
2023-04-15T16:31:41.825Z,13.85
2023-04-15T16:34:09.118Z,14.06
2023-04-15T16:36:36.445Z,14.10
2023-04-15T16:39:04.420Z,14.59
2023-04-15T16:41:33.911Z,14.56
2023-04-15T16:44:02.137Z,14.48
2023-04-15T16:46:30.007Z,14.65
2023-04-15T16:48:57.088Z,14.79
2023-04-15T16:51:24.155Z,14.79
2023-04-15T16:53:51.276Z,15.15
2023-04-15T16:56:18.505Z,15.13
2023-04-15T16:58:45.706Z,15.37
2023-04-15T17:01:12.863Z,15.89
2023-04-15T17:03:40.292Z,15.74
2023-04-15T17:06:07.536Z,15.85
2023-04-15T17:08:34.949Z,15.94
2023-04-15T17:11:02.006Z,15.97
2023-04-15T17:13:29.080Z,16.22
2023-04-15T17:15:56.678Z,16.38
2023-04-15T17:18:36.129Z,16.75
2023-04-15T17:21:18.929Z,16.96
2023-04-15T17:23:52.442Z,17.06
2023-04-15T17:26:21.224Z,17.30
2023-04-15T17:28:53.936Z,17.34
2023-04-15T17:31:32.245Z,17.25
2023-04-15T17:34:19.322Z,17.52
2023-04-15T17:37:06.649Z,17.46
2023-04-15T17:39:53.630Z,17.54
2023-04-15T17:42:21.800Z,18.25
2023-04-15T17:45:09.488Z,18.28
2023-04-15T17:47:56.580Z,18.38
2023-04-15T17:50:43.600Z,18.97
2023-04-15T17:53:30.654Z,19.57
2023-04-15T17:56:17.632Z,19.75
2023-04-15T17:59:04.703Z,20.79
2023-04-15T18:01:51.797Z,21.84
2023-04-15T18:04:39.342Z,22.40
2023-04-15T18:07:26.609Z,22.88
2023-04-15T18:10:13.578Z,22.69
2023-04-15T18:13:00.676Z,22.92
2023-04-15T18:15:48.983Z,23.03
2023-04-15T18:18:36.054Z,22.84
2023-04-15T18:21:03.050Z,23.09
2023-04-15T18:23:30.120Z,22.90
2023-04-15T18:25:58.304Z,23.28
2023-04-15T18:28:25.823Z,23.11
2023-04-15T18:30:53.556Z,23.38
2023-04-15T18:33:21.096Z,23.23
2023-04-15T18:35:50.005Z,23.26
2023-04-15T18:38:17.456Z,23.60
2023-04-15T18:40:44.640Z,23.36
2023-04-15T18:43:11.935Z,23.51
2023-04-15T18:45:39.141Z,23.37
2023-04-15T18:48:06.413Z,23.90
2023-04-15T18:50:33.525Z,23.75
2023-04-15T18:53:00.621Z,23.52
2023-04-15T18:55:27.759Z,24.04
2023-04-15T18:57:56.739Z,23.94
2023-04-15T19:00:41.968Z,24.22
2023-04-15T19:03:09.294Z,23.98
2023-04-15T19:05:37.164Z,23.88
2023-04-15T19:08:04.153Z,23.96
2023-04-15T19:10:31.480Z,24.20
2023-04-15T19:12:58.592Z,25.50
2023-04-15T19:15:25.685Z,26.20
2023-04-15T19:17:52.846Z,27.14
2023-04-15T19:20:19.997Z,27.22
2023-04-15T19:22:47.433Z,27.74
2023-04-15T19:25:14.699Z,28.35
2023-04-15T19:27:41.812Z,29.16
2023-04-15T19:30:09.126Z,29.91
2023-04-15T19:32:36.876Z,30.53
2023-04-15T19:35:05.023Z,31.11
2023-04-15T19:37:32.804Z,31.52
2023-04-15T19:40:00.248Z,31.86
2023-04-15T19:42:28.879Z,31.98
2023-04-15T19:44:56.810Z,32.12
2023-04-15T19:47:24.654Z,31.96
2023-04-15T19:49:52.834Z,31.83
2023-04-15T19:52:19.890Z,32.25
2023-04-15T19:54:47.079Z,32.17
2023-04-15T19:57:14.263Z,32.59
2023-04-15T19:59:41.448Z,32.67
2023-04-15T20:02:08.806Z,33.10
2023-04-15T20:04:36.153Z,33.19
2023-04-15T20:07:03.334Z,33.30
2023-04-15T20:09:30.435Z,33.11
2023-04-15T20:12:46.927Z,33.61
2023-04-15T20:14:44.790Z,33.49
2023-04-15T20:17:11.782Z,33.26
2023-04-15T20:19:39.259Z,33.83
2023-04-15T20:22:06.370Z,33.84
2023-04-15T20:24:33.456Z,34.18
2023-04-15T20:27:00.872Z,34.12
2023-04-15T20:29:28.085Z,34.48
2023-04-15T20:31:56.417Z,34.35
2023-04-15T20:34:23.465Z,34.32
2023-04-15T20:36:50.902Z,34.88
2023-04-15T20:39:17.937Z,34.42
2023-04-15T20:41:45.048Z,34.85
2023-04-15T20:44:12.186Z,34.86
2023-04-15T20:46:39.309Z,35.11
2023-04-15T20:49:06.605Z,35.40
2023-04-15T20:51:37.877Z,35.00
2023-04-15T20:54:05.280Z,35.60
2023-04-15T20:56:32.652Z,35.27
2023-04-15T20:59:01.290Z,35.62
2023-04-15T21:01:28.474Z,35.67
2023-04-15T21:03:55.679Z,35.78
2023-04-15T21:06:22.798Z,36.74
2023-04-15T21:08:49.950Z,37.69
2023-04-15T21:11:36.521Z,38.21
2023-04-15T21:14:07.577Z,38.46
2023-04-15T21:16:34.882Z,38.94
2023-04-15T21:19:02.021Z,39.01
2023-04-15T21:21:29.137Z,39.08
2023-04-15T21:23:56.095Z,38.51
2023-04-15T21:26:23.151Z,38.63
2023-04-15T21:28:50.254Z,38.32
2023-04-15T21:31:17.336Z,38.10
2023-04-15T21:33:44.326Z,38.13
2023-04-15T21:36:11.411Z,38.48
2023-04-15T21:38:38.440Z,38.27
2023-04-15T21:41:09.767Z,38.55
2023-04-15T21:43:37.204Z,39.35
2023-04-15T21:46:23.612Z,38.29
2023-04-15T21:48:52.794Z,38.95
2023-04-15T21:51:20.005Z,39.35
2023-04-15T21:53:47.509Z,39.35
2023-04-15T21:56:14.692Z,39.37
2023-04-15T21:58:41.698Z,39.83
2023-04-15T22:01:08.813Z,39.98
2023-04-15T22:03:36.087Z,40.47
2023-04-15T22:06:04.106Z,40.69
2023-04-15T22:08:41.613Z,41.54
2023-04-15T22:11:29.774Z,42.31
2023-04-15T22:13:58.050Z,42.21
2023-04-15T22:16:26.672Z,42.76
2023-04-15T22:18:55.295Z,42.84
2023-04-15T22:21:22.735Z,42.81
2023-04-15T22:23:50.017Z,43.10
2023-04-15T22:26:17.291Z,44.30
2023-04-15T22:28:44.303Z,44.64
2023-04-15T22:31:11.632Z,45.09
2023-04-15T22:33:39.220Z,45.35
2023-04-15T22:36:06.520Z,45.46
2023-04-15T22:38:33.634Z,45.83
2023-04-15T22:41:00.690Z,45.71
2023-04-15T22:43:27.968Z,46.21
2023-04-15T22:45:55.474Z,46.00
2023-04-15T22:48:23.357Z,46.40
2023-04-15T22:50:50.521Z,46.72
2023-04-15T22:53:18.157Z,46.17
2023-04-15T22:55:48.618Z,46.61
2023-04-15T22:58:17.253Z,46.63
2023-04-15T23:00:44.874Z,46.70
2023-04-15T23:03:12.248Z,46.29
2023-04-15T23:05:41.452Z,46.37
2023-04-15T23:08:08.794Z,46.26
2023-04-15T23:10:36.046Z,46.01
2023-04-15T23:13:03.138Z,46.28
2023-04-15T23:15:30.299Z,46.44
2023-04-15T23:17:57.568Z,46.39
2023-04-15T23:20:24.607Z,46.52
2023-04-15T23:22:51.632Z,46.51
2023-04-15T23:25:22.415Z,46.16
2023-04-15T23:27:49.452Z,46.68
2023-04-15T23:30:16.488Z,46.09
2023-04-15T23:32:43.741Z,46.48
2023-04-15T23:35:10.987Z,46.61
2023-04-15T23:37:37.969Z,46.54
2023-04-15T23:40:05.608Z,47.17
2023-04-15T23:42:32.703Z,47.21
2023-04-15T23:44:59.775Z,47.53
2023-04-15T23:47:26.900Z,47.06
2023-04-15T23:49:54.122Z,47.35
2023-04-15T23:52:21.259Z,47.50
2023-04-15T23:54:48.471Z,47.77
2023-04-15T23:57:15.634Z,47.80
2023-04-15T23:59:42.671Z,47.89
